Wayne, New York
Current Conditions -  °F | °C
As of 6:53 PM on Monday 20 Oct 2014 (Local Time) from KPEO Reporting Station
Overcast Overcast  
Wind Chill: 52°   Ceiling: 9000
Heat Index: 52°   Visibility: 10mi
Dew Point: 41°   Wind: 7mph
Humidity: 66%   Direction: 170°S
Pressure: 29.86"   Gusts: NA
Location:  42.47°N, 77.11°W
Report Text: KPEO 202253Z AUTO 17006KT 10SM OVC090 11/05 A2986 RMK AO2 SLP114 T01110050
Loading
Personal Weather Stations






























Interactive Weather Map
Tropical Storm Tracking
New forecast layout! Learn more

10-Day Weather Forecast

Advertisements
Track Severe Weather on mobile